Time;durP1;ratioP1;P1;durP2;ratioP2;P2;SDS_P1;SDS_P2;PMS_P1;PMS_P2;Temp;Humidity;BMP_temperature;BMP_pressure;BME280_temperature;BME280_humidity;BME280_pressure;Samples;Min_cycle;Max_cycle;Signal;HPM_P1;HPM_P2
2023/07/05 00:00:09;;;;;;;14.05;12.18;;;;;;;25.98;56.26;100180.41;5033203;28;20045;-62
2023/07/05 00:02:37;;;;;;;13.13;11.43;;;;;;;25.96;56.68;100169.63;5033026;28;20103;-62
2023/07/05 00:05:07;;;;;;;13.02;10.65;;;;;;;25.95;56.24;100182.47;5033188;28;20353;-62
2023/07/05 00:07:35;;;;;;;14.05;11.27;;;;;;;25.96;56.60;100177.84;5033026;28;20049;-62
2023/07/05 00:10:04;;;;;;;15.82;12.10;;;;;;;25.94;56.46;100177.19;5033175;28;20077;-62
2023/07/05 00:12:35;;;;;;;13.00;10.03;;;;;;;25.93;56.63;100181.81;5032979;28;20041;-62
2023/07/05 00:15:07;;;;;;;10.00;8.60;;;;;;;25.93;56.53;100175.50;5032697;28;20789;-62
2023/07/05 00:17:36;;;;;;;11.98;9.40;;;;;;;25.91;56.69;100183.06;5032597;28;20084;-62
2023/07/05 00:20:06;;;;;;;12.70;9.40;;;;;;;25.90;56.58;100171.28;5032855;28;20050;-62
2023/07/05 00:22:34;;;;;;;12.02;8.57;;;;;;;25.90;56.35;100175.91;5032710;28;20344;-62
2023/07/05 00:25:03;;;;;;;10.25;7.38;;;;;;;25.88;56.65;100175.25;5032549;28;20522;-62
2023/07/05 00:27:32;;;;;;;11.63;7.93;;;;;;;25.83;56.29;100164.88;5032489;28;20041;-62
2023/07/05 00:30:00;;;;;;;11.15;8.25;;;;;;;25.82;56.74;100165.09;5031779;28;20055;-62
2023/07/05 00:32:29;;;;;;;11.70;7.50;;;;;;;25.82;56.78;100163.19;5032629;28;20046;-63
2023/07/05 00:34:57;;;;;;;10.63;7.25;;;;;;;25.83;56.60;100161.31;5032465;28;20137;-62
2023/07/05 00:37:25;;;;;;;11.15;7.03;;;;;;;25.81;56.49;100163.41;5032145;28;20045;-62
2023/07/05 00:39:54;;;;;;;9.18;6.93;;;;;;;25.80;56.57;100161.72;5032306;28;20045;-62
2023/07/05 00:42:22;;;;;;;9.88;6.88;;;;;;;25.78;56.79;100163.78;5032581;28;20052;-63
2023/07/05 00:45:35;;;;;;;9.27;6.85;;;;;;;25.77;56.56;100164.81;5032564;28;20049;-62
2023/07/05 00:48:05;;;;;;;9.40;6.80;;;;;;;25.75;56.68;100166.88;5032057;28;20045;-63
2023/07/05 00:50:39;;;;;;;8.88;6.63;;;;;;;25.75;56.62;100175.09;5032138;28;20091;-62
2023/07/05 00:53:09;;;;;;;9.48;6.45;;;;;;;25.73;56.78;100166.25;5032011;28;20057;-60
2023/07/05 00:55:41;;;;;;;9.50;6.53;;;;;;;25.72;56.70;100164.56;5032490;28;20079;-62
2023/07/05 00:58:10;;;;;;;7.90;6.22;;;;;;;25.72;56.38;100162.66;5032105;28;20053;-62
2023/07/05 01:00:39;;;;;;;8.40;5.97;;;;;;;25.72;56.89;100164.56;5032320;28;20061;-62
2023/07/05 01:03:13;;;;;;;9.40;5.93;;;;;;;25.71;56.56;100162.88;5031968;28;20059;-62
2023/07/05 01:05:41;;;;;;;9.98;5.53;;;;;;;25.71;56.65;100162.88;5031813;28;20057;-62
2023/07/05 01:08:10;;;;;;;10.30;6.05;;;;;;;25.68;56.80;100159.44;5032029;28;20111;-62
2023/07/05 01:10:39;;;;;;;8.52;5.75;;;;;;;25.66;56.59;100155.19;5031959;28;20056;-62
2023/07/05 01:13:14;;;;;;;9.75;6.15;;;;;;;25.65;56.75;100159.81;5031814;28;20537;-62
2023/07/05 01:15:48;;;;;;;8.27;5.78;;;;;;;25.65;56.49;100153.50;5031629;28;20080;-62
2023/07/05 01:18:25;;;;;;;9.00;5.97;;;;;;;25.65;56.47;100161.69;5031894;28;20433;-62
2023/07/05 01:21:01;;;;;;;7.80;5.22;;;;;;;25.63;56.58;100159.16;5031637;28;20482;-62
2023/07/05 01:24:04;;;;;;;9.02;5.75;;;;;;;25.63;56.43;100155.59;5031539;28;20045;-62
2023/07/05 01:26:46;;;;;;;8.10;5.78;;;;;;;25.61;56.91;100161.25;5006878;28;20053;-62
2023/07/05 01:29:47;;;;;;;9.63;5.50;;;;;;;25.59;56.52;100146.94;5031713;28;20061;-62
2023/07/05 01:32:20;;;;;;;8.20;5.43;;;;;;;25.58;56.74;100148.00;5031485;28;20053;-62
2023/07/05 01:34:53;;;;;;;8.35;5.35;;;;;;;25.59;56.77;100146.09;5031287;28;20056;-62
2023/07/05 01:37:33;;;;;;;10.48;6.35;;;;;;;25.57;56.83;100146.28;5031670;28;20050;-62
2023/07/05 01:40:02;;;;;;;10.85;5.70;;;;;;;25.56;56.74;100147.31;5031408;28;20459;-61
2023/07/05 01:42:33;;;;;;;7.47;5.53;;;;;;;25.56;56.71;100151.94;5031399;28;20067;-62
2023/07/05 01:45:01;;;;;;;8.55;5.38;;;;;;;25.55;56.95;100151.09;5031261;28;20049;-61
2023/07/05 01:47:36;;;;;;;8.30;5.53;;;;;;;25.54;56.64;100154.84;5031535;28;20041;-62
2023/07/05 01:50:18;;;;;;;8.32;5.38;;;;;;;25.52;56.80;100154.22;5031442;28;20084;-62
2023/07/05 01:52:54;;;;;;;8.98;5.50;;;;;;;25.51;56.94;100149.78;5031154;28;20049;-62
2023/07/05 01:55:28;;;;;;;9.65;5.60;;;;;;;25.51;56.78;100151.66;5031237;28;20140;-62
2023/07/05 01:58:02;;;;;;;10.38;6.05;;;;;;;25.49;57.03;100149.13;5031263;28;20069;-62
2023/07/05 02:00:31;;;;;;;10.43;5.72;;;;;;;25.48;57.06;100155.63;5031173;28;20076;-62
2023/07/05 02:03:05;;;;;;;10.07;6.10;;;;;;;25.47;57.23;100147.59;5031358;28;21254;-62
2023/07/05 02:05:34;;;;;;;10.15;5.80;;;;;;;25.44;57.47;100151.56;5031239;28;20085;-62
2023/07/05 02:08:03;;;;;;;9.80;5.43;;;;;;;25.45;57.39;100153.25;5031137;28;20089;-62
2023/07/05 02:10:32;;;;;;;8.13;5.68;;;;;;;25.46;57.41;100144.03;5031155;28;20112;-62
2023/07/05 02:13:03;;;;;;;9.05;5.65;;;;;;;25.44;57.23;100151.56;5031214;28;20049;-62
2023/07/05 02:15:32;;;;;;;9.07;5.90;;;;;;;25.44;57.39;100150.72;5031347;28;20057;-62
2023/07/05 02:18:02;;;;;;;8.38;4.90;;;;;;;25.41;57.15;100149.25;5030998;28;20045;-62
2023/07/05 02:20:31;;;;;;;9.85;6.32;;;;;;;25.41;57.68;100146.50;5031015;28;20526;-62
2023/07/05 02:22:59;;;;;;;9.18;5.82;;;;;;;25.39;57.52;100148.59;5031032;28;20486;-62
2023/07/05 02:25:28;;;;;;;8.00;5.82;;;;;;;25.40;57.79;100150.28;5031172;28;20045;-62
2023/07/05 02:27:56;;;;;;;9.35;6.00;;;;;;;25.36;57.38;100159.88;5031025;28;20045;-62
2023/07/05 02:30:26;;;;;;;8.80;6.00;;;;;;;25.36;57.59;100159.88;5030928;28;20045;-62
2023/07/05 02:32:55;;;;;;;10.77;6.32;;;;;;;25.36;57.73;100160.72;5030786;28;20482;-64
2023/07/05 02:35:24;;;;;;;9.80;6.03;;;;;;;25.35;57.91;100155.44;5030806;28;20042;-62
2023/07/05 02:37:52;;;;;;;8.73;6.00;;;;;;;25.34;58.20;100145.56;5030967;28;20045;-63
2023/07/05 02:40:20;;;;;;;8.48;5.68;;;;;;;25.33;57.90;100149.34;5030887;28;20082;-62
2023/07/05 02:42:48;;;;;;;10.70;6.15;;;;;;;25.36;57.66;100152.53;5030964;28;20041;-62
2023/07/05 02:45:16;;;;;;;9.73;6.45;;;;;;;25.35;57.79;100142.66;5030901;28;20049;-62
2023/07/05 02:47:44;;;;;;;11.35;6.72;;;;;;;25.33;58.07;100141.16;5030678;28;20037;-62
2023/07/05 02:50:14;;;;;;;10.10;5.75;;;;;;;25.33;57.93;100141.16;5030677;28;20108;-62
2023/07/05 02:52:47;;;;;;;8.60;5.80;;;;;;;25.32;57.80;100139.47;5032659;28;20502;-62
2023/07/05 02:55:15;;;;;;;7.95;5.70;;;;;;;25.31;57.62;100140.50;5034314;28;20096;-62
2023/07/05 02:57:44;;;;;;;8.93;5.90;;;;;;;25.28;57.80;100136.25;5034333;28;20061;-62
2023/07/05 03:00:13;;;;;;;9.10;5.68;;;;;;;25.26;57.91;100138.31;5034173;28;20053;-62
2023/07/05 03:02:41;;;;;;;9.43;6.00;;;;;;;25.27;57.57;100144.63;5034135;28;20049;-61
2023/07/05 03:05:11;;;;;;;9.63;5.80;;;;;;;25.25;57.27;100133.06;5034408;28;20046;-62
2023/07/05 03:07:39;;;;;;;9.70;6.18;;;;;;;25.25;57.75;100149.44;5034102;28;20552;-62
2023/07/05 03:10:09;;;;;;;9.23;5.70;;;;;;;25.23;57.41;100146.06;5034117;28;20088;-62
2023/07/05 03:12:37;;;;;;;9.77;5.88;;;;;;;25.22;57.62;100138.91;5034064;28;20088;-62
2023/07/05 03:15:06;;;;;;;10.95;6.13;;;;;;;25.22;57.39;100137.03;5033831;28;20057;-62
2023/07/05 03:17:35;;;;;;;9.10;5.95;;;;;;;25.23;57.32;100143.31;5033867;28;20053;-62
2023/07/05 03:20:03;;;;;;;8.93;6.03;;;;;;;25.23;57.34;100140.59;5033844;28;20049;-62
2023/07/05 03:22:31;;;;;;;9.02;6.35;;;;;;;25.21;57.20;100139.94;5033836;28;20091;-62
2023/07/05 03:24:59;;;;;;;10.60;5.95;;;;;;;25.20;57.38;100138.25;5033843;28;20128;-62
2023/07/05 03:27:29;;;;;;;8.48;5.40;;;;;;;25.20;57.31;100128.19;5033711;28;20111;-62
2023/07/05 03:29:57;;;;;;;9.77;5.50;;;;;;;25.19;57.64;100142.00;5033532;28;20050;-62
2023/07/05 03:32:26;;;;;;;9.73;5.60;;;;;;;25.17;57.58;100138.63;5033560;28;20449;-62
2023/07/05 03:34:54;;;;;;;9.13;5.85;;;;;;;25.15;57.58;100141.53;5033658;28;20095;-63
2023/07/05 03:37:23;;;;;;;7.60;5.40;;;;;;;25.12;57.97;100144.66;5033612;28;20391;-62
2023/07/05 03:39:53;;;;;;;8.63;6.05;;;;;;;25.12;58.03;100141.94;5033428;28;20092;-62
2023/07/05 03:42:21;;;;;;;9.65;6.25;;;;;;;25.13;57.64;100148.22;5033374;28;20085;-62
2023/07/05 03:44:51;;;;;;;10.02;6.43;;;;;;;25.15;57.66;100154.34;5033628;28;20046;-62
2023/07/05 03:47:19;;;;;;;11.25;6.07;;;;;;;25.16;57.72;100150.56;5033482;28;20045;-62
2023/07/05 03:49:47;;;;;;;8.75;5.97;;;;;;;25.14;57.67;100149.94;5033518;28;20041;-62
2023/07/05 03:52:15;;;;;;;8.15;5.80;;;;;;;25.14;58.00;100149.94;5033251;28;20054;-62
2023/07/05 03:54:43;;;;;;;9.02;6.15;;;;;;;25.15;57.69;100157.06;5033258;28;20049;-62
2023/07/05 03:57:11;;;;;;;8.45;5.93;;;;;;;25.15;57.68;100151.63;5033513;28;20053;-62
2023/07/05 03:59:40;;;;;;;9.60;6.80;;;;;;;25.13;57.62;100145.50;5032941;28;20054;-62
2023/07/05 04:02:09;;;;;;;9.75;6.60;;;;;;;25.13;57.81;100148.22;5033118;28;20526;-62
2023/07/05 04:04:37;;;;;;;9.27;6.10;;;;;;;25.11;58.03;100140.25;5032048;28;20045;-61
2023/07/05 04:07:07;;;;;;;9.07;6.22;;;;;;;25.10;58.08;100136.66;5032973;28;20045;-62
2023/07/05 04:09:35;;;;;;;9.77;5.97;;;;;;;25.10;57.86;100135.81;5032797;28;20080;-62
2023/07/05 04:12:04;;;;;;;9.95;6.05;;;;;;;25.10;57.89;100138.56;5033130;28;20081;-62
2023/07/05 04:14:32;;;;;;;10.20;6.43;;;;;;;25.10;57.94;100141.28;5032944;28;20478;-61
2023/07/05 04:17:00;;;;;;;7.80;5.60;;;;;;;25.09;57.82;100143.16;5032906;28;20057;-61
2023/07/05 04:19:30;;;;;;;9.57;5.70;;;;;;;25.11;57.78;100141.09;5032586;28;20568;-62
2023/07/05 04:21:58;;;;;;;8.18;5.68;;;;;;;25.10;57.73;100147.59;5032608;28;20052;-62
2023/07/05 04:24:26;;;;;;;9.82;6.30;;;;;;;25.13;57.79;100148.22;5032892;28;20054;-62
2023/07/05 04:26:54;;;;;;;9.43;6.20;;;;;;;25.12;57.53;100147.38;5032627;28;20049;-62
2023/07/05 04:29:23;;;;;;;8.40;6.00;;;;;;;25.13;57.50;100150.97;5032453;28;20053;-62
2023/07/05 04:31:51;;;;;;;8.05;5.50;;;;;;;25.13;57.54;100159.16;5032684;28;20461;-61
2023/07/05 04:34:19;;;;;;;10.35;6.45;;;;;;;25.11;57.69;100152.00;5032475;28;20141;-62
2023/07/05 04:36:48;;;;;;;8.15;6.00;;;;;;;25.12;57.82;100161.03;5032256;28;20553;-61
2023/07/05 04:39:16;;;;;;;9.98;5.90;;;;;;;25.11;57.33;100162.91;5032117;28;20608;-61
2023/07/05 04:41:44;;;;;;;8.75;6.38;;;;;;;25.10;58.01;100166.69;5032665;28;20076;-61
2023/07/05 04:44:16;;;;;;;9.40;6.10;;;;;;;25.10;57.97;100163.13;5032312;28;20053;-61
2023/07/05 04:46:44;;;;;;;9.30;6.03;;;;;;;25.10;57.84;100165.84;5032135;28;20379;-61
2023/07/05 04:49:12;;;;;;;9.05;6.43;;;;;;;25.09;58.13;100172.31;5031986;28;20051;-62
2023/07/05 04:51:40;;;;;;;8.52;6.05;;;;;;;25.07;57.87;100167.03;5032264;28;20513;-62
2023/07/05 04:54:09;;;;;;;10.07;6.30;;;;;;;25.05;57.83;100171.84;5032207;28;20048;-61
2023/07/05 04:56:38;;;;;;;9.80;5.95;;;;;;;25.04;58.04;100164.69;5032066;28;20041;-62
2023/07/05 04:59:06;;;;;;;9.07;5.97;;;;;;;25.05;57.84;100163.66;5031722;28;20528;-62
2023/07/05 05:01:34;;;;;;;9.15;5.72;;;;;;;25.04;57.94;100161.13;5031630;28;20045;-62
2023/07/05 05:04:02;;;;;;;8.38;5.78;;;;;;;25.04;58.25;100167.44;5032059;28;20053;-62
2023/07/05 05:06:30;;;;;;;8.68;5.53;;;;;;;25.04;58.25;100172.88;5031862;28;20072;-62
2023/07/05 05:08:58;;;;;;;9.32;5.68;;;;;;;25.06;58.28;100175.41;5031662;28;20045;-62
2023/07/05 05:11:29;;;;;;;8.77;6.10;;;;;;;25.05;58.09;100169.13;5031812;28;20049;-62
2023/07/05 05:13:58;;;;;;;8.57;5.70;;;;;;;25.05;58.12;100173.72;5031631;28;20100;-61
2023/07/05 05:16:27;;;;;;;8.57;6.00;;;;;;;25.06;58.37;100175.41;5031415;28;20052;-62
2023/07/05 05:18:55;;;;;;;8.23;5.85;;;;;;;25.06;58.06;100176.25;5031745;28;20129;-60
2023/07/05 05:21:23;;;;;;;9.60;6.50;;;;;;;25.06;57.88;100176.25;5031744;28;20115;-60
2023/07/05 05:23:51;;;;;;;8.48;6.15;;;;;;;25.07;57.89;100177.09;5031483;28;20490;-62
2023/07/05 05:26:19;;;;;;;8.63;5.88;;;;;;;25.07;57.82;100177.97;5031522;28;20046;-62
2023/07/05 05:28:49;;;;;;;9.68;6.35;;;;;;;25.09;57.89;100173.19;5031504;28;20049;-62
2023/07/05 05:31:17;;;;;;;9.10;5.93;;;;;;;25.09;58.01;100183.22;5031685;28;20104;-62
2023/07/05 05:33:46;;;;;;;10.10;6.13;;;;;;;25.09;58.17;100181.38;5031436;28;20164;-62
2023/07/05 05:36:15;;;;;;;9.45;6.13;;;;;;;25.09;58.28;100173.19;5030919;28;20049;-62
2023/07/05 05:38:43;;;;;;;10.27;6.47;;;;;;;25.09;58.54;100178.63;5031276;28;20053;-62
2023/07/05 05:41:11;;;;;;;8.43;5.88;;;;;;;25.09;58.84;100170.44;5031456;28;20387;-61
2023/07/05 05:43:40;;;;;;;10.02;5.80;;;;;;;25.09;58.61;100170.44;5031135;28;20049;-62
2023/07/05 05:46:09;;;;;;;8.13;5.63;;;;;;;25.10;58.27;100172.16;5031431;28;20136;-61
2023/07/05 05:48:40;;;;;;;8.45;5.60;;;;;;;25.11;58.55;100167.53;5031363;28;20053;-61
2023/07/05 05:51:09;;;;;;;9.10;5.90;;;;;;;25.11;58.88;100156.63;5031049;28;20045;-61
2023/07/05 05:53:37;;;;;;;9.85;5.90;;;;;;;25.11;58.82;100162.91;5030818;28;20092;-66
2023/07/05 05:56:05;;;;;;;8.48;5.85;;;;;;;25.12;59.06;100163.75;5030782;28;20046;-62
2023/07/05 05:58:34;;;;;;;10.80;6.18;;;;;;;25.13;58.88;100162.72;5031162;28;20053;-62
2023/07/05 06:01:03;;;;;;;9.60;6.40;;;;;;;25.13;58.70;100164.59;5031635;28;20060;-62
2023/07/05 06:03:33;;;;;;;10.35;5.93;;;;;;;25.14;58.83;100163.56;5031032;28;20056;-61
2023/07/05 06:06:02;;;;;;;8.70;5.80;;;;;;;25.15;59.06;100168.00;5031007;28;20088;-62
2023/07/05 06:08:31;;;;;;;8.18;5.47;;;;;;;25.14;58.46;100163.56;5023162;28;20050;-61
2023/07/05 06:11:02;;;;;;;8.68;5.68;;;;;;;25.15;58.57;100157.06;5021051;28;20454;-62
2023/07/05 06:13:31;;;;;;;9.55;6.13;;;;;;;25.15;58.86;100163.38;5019786;28;20054;-63
2023/07/05 06:16:02;;;;;;;8.35;5.63;;;;;;;25.15;59.07;100157.06;5022423;28;20112;-62
2023/07/05 06:18:43;;;;;;;9.50;5.77;;;;;;;25.16;58.78;100153.31;5021980;28;20042;-61
2023/07/05 06:21:12;;;;;;;8.77;6.07;;;;;;;25.17;59.03;100155.84;5019393;28;20054;-62
2023/07/05 06:23:40;;;;;;;9.02;5.82;;;;;;;25.17;58.88;100144.06;5020564;28;20088;-61
2023/07/05 06:26:10;;;;;;;7.90;5.40;;;;;;;25.17;58.78;100147.66;5013846;28;20096;-63
2023/07/05 06:28:38;;;;;;;8.38;5.70;;;;;;;25.19;58.94;100148.34;5014757;28;20104;-61
2023/07/05 06:31:07;;;;;;;9.52;6.28;;;;;;;25.19;58.70;100150.19;5015189;28;20151;-61
2023/07/05 06:33:35;;;;;;;9.38;6.55;;;;;;;25.21;59.53;100139.94;5014723;28;20054;-62
2023/07/05 06:36:06;;;;;;;9.43;6.63;;;;;;;25.21;59.51;100145.41;5014613;28;20050;-62
2023/07/05 06:38:35;;;;;;;11.13;6.53;;;;;;;25.20;59.04;100138.25;5014529;28;20138;-62
2023/07/05 06:41:03;;;;;;;11.13;6.20;;;;;;;25.22;59.14;100136.19;5014567;28;20104;-61
2023/07/05 06:43:32;;;;;;;8.32;6.00;;;;;;;25.22;58.91;100136.19;5014532;28;20046;-63
2023/07/05 06:46:00;;;;;;;10.63;5.97;;;;;;;25.22;58.72;100131.56;5014672;28;20046;-62
2023/07/05 06:48:28;;;;;;;8.52;5.95;;;;;;;25.23;58.58;100133.25;5014524;28;20128;-62
2023/07/05 06:50:59;;;;;;;9.57;6.10;;;;;;;25.24;58.66;100134.09;5014678;28;20050;-62
2023/07/05 06:53:29;;;;;;;9.70;6.07;;;;;;;25.25;58.52;100135.78;5014661;28;20138;-63
2023/07/05 06:56:16;;;;;;;11.00;6.70;;;;;;;25.25;58.63;100136.63;5014450;28;20046;-63
2023/07/05 06:58:44;;;;;;;9.57;5.85;;;;;;;25.26;58.76;100132.88;5014215;28;20359;-62
2023/07/05 07:01:12;;;;;;;10.48;5.97;;;;;;;25.27;59.08;100139.16;5014259;28;20046;-62
2023/07/05 07:03:41;;;;;;;10.68;6.32;;;;;;;25.27;59.19;100130.97;5014472;28;20053;-62
2023/07/05 07:06:10;;;;;;;8.60;5.68;;;;;;;25.28;59.29;100136.25;5014480;28;20046;-62
2023/07/05 07:08:40;;;;;;;8.57;5.78;;;;;;;25.28;58.58;100130.78;5013652;28;20297;-62
2023/07/05 07:11:11;;;;;;;8.90;5.90;;;;;;;25.29;58.41;100137.13;4995162;28;20104;-62
2023/07/05 07:13:39;;;;;;;9.23;5.78;;;;;;;25.30;58.86;100127.88;5013428;28;20050;-62
2023/07/05 07:16:10;;;;;;;8.38;5.93;;;;;;;25.31;59.07;100129.59;5012853;28;20057;-63
2023/07/05 07:18:38;;;;;;;10.82;5.95;;;;;;;25.32;59.00;100131.28;5014203;28;20045;-60
2023/07/05 07:21:08;;;;;;;8.45;5.63;;;;;;;25.32;58.88;100128.53;5014008;28;20046;-61
2023/07/05 07:23:37;;;;;;;9.82;6.07;;;;;;;25.32;58.75;100123.09;5014157;28;20092;-62
2023/07/05 07:26:09;;;;;;;9.18;5.78;;;;;;;25.33;58.63;100122.03;5013803;28;20046;-63
2023/07/05 07:28:37;;;;;;;10.37;5.80;;;;;;;25.35;58.85;100130.88;5014313;28;20094;-62
2023/07/05 07:31:10;;;;;;;11.35;5.68;;;;;;;25.36;58.66;100127.94;5014006;28;20506;-62
2023/07/05 07:33:38;;;;;;;8.10;5.82;;;;;;;25.36;58.60;100125.22;5013920;28;20046;-63
2023/07/05 07:36:10;;;;;;;10.57;6.20;;;;;;;25.38;58.50;100131.38;5013972;28;20050;-62
2023/07/05 07:38:40;;;;;;;9.30;5.65;;;;;;;25.39;58.69;100129.47;5013566;28;20054;-62
2023/07/05 07:41:14;;;;;;;9.95;6.00;;;;;;;25.40;58.54;100133.91;5013574;28;20054;-63
2023/07/05 07:43:43;;;;;;;11.23;6.32;;;;;;;25.40;58.56;100131.16;5013900;28;20080;-64
2023/07/05 07:46:13;;;;;;;9.13;5.90;;;;;;;25.42;58.65;100131.81;5013607;28;20104;-63
2023/07/05 07:48:43;;;;;;;10.70;5.85;;;;;;;25.43;58.64;100135.41;5013605;28;20055;-63
2023/07/05 07:51:12;;;;;;;11.18;6.13;;;;;;;25.43;58.47;100136.25;5013189;28;20050;-62
2023/07/05 07:54:00;;;;;;;10.55;5.85;;;;;;;25.44;58.30;100132.47;5013497;28;20051;-62
2023/07/05 07:56:29;;;;;;;9.05;5.97;;;;;;;25.44;58.41;100129.72;5013502;28;20089;-62
2023/07/05 07:58:59;;;;;;;8.77;5.88;;;;;;;25.46;58.42;100127.66;5013359;28;20042;-62
2023/07/05 08:01:30;;;;;;;8.82;5.90;;;;;;;25.46;58.65;100130.38;5013132;28;20152;-62
2023/07/05 08:04:00;;;;;;;9.85;6.00;;;;;;;25.48;58.23;100132.91;5013579;28;20053;-63
2023/07/05 08:06:30;;;;;;;9.10;6.15;;;;;;;25.49;58.38;100126.44;5013020;28;20490;-63
2023/07/05 08:08:59;;;;;;;10.57;5.80;;;;;;;25.49;58.38;100121.84;5013077;28;20049;-62
2023/07/05 08:11:27;;;;;;;9.13;5.68;;;;;;;25.50;58.41;100123.53;5013076;28;20503;-62
2023/07/05 08:13:56;;;;;;;9.60;5.72;;;;;;;25.52;58.43;100126.91;5012953;28;20084;-62
2023/07/05 08:16:25;;;;;;;10.55;6.20;;;;;;;25.53;58.44;100127.75;5013149;28;20081;-62
2023/07/05 08:18:53;;;;;;;9.65;5.78;;;;;;;25.54;58.04;100129.44;5013211;28;20050;-63
2023/07/05 08:21:22;;;;;;;10.90;6.03;;;;;;;25.54;58.00;100124.81;5012895;28;20042;-63
2023/07/05 08:23:50;;;;;;;9.80;6.03;;;;;;;25.55;58.26;100123.78;5012788;28;20052;-63
2023/07/05 08:26:18;;;;;;;10.93;6.72;;;;;;;25.56;58.03;100128.19;5012581;28;20054;-62
2023/07/05 08:28:46;;;;;;;11.68;6.88;;;;;;;25.57;57.43;100118.97;5012583;28;20448;-62
2023/07/05 08:31:16;;;;;;;11.07;5.88;;;;;;;25.52;57.41;100124.16;5012952;28;20100;-62
2023/07/05 08:33:44;;;;;;;10.60;6.10;;;;;;;25.51;57.47;100119.75;5012849;28;20052;-63
2023/07/05 08:36:19;;;;;;;9.07;5.97;;;;;;;25.52;57.90;100121.44;5012674;28;20046;-63
2023/07/05 08:38:49;;;;;;;10.07;6.18;;;;;;;25.52;57.37;100118.69;5012636;28;20144;-63
2023/07/05 08:41:47;;;;;;;11.02;5.95;;;;;;;25.56;57.44;100117.28;5012417;28;20092;-63
2023/07/05 08:44:22;;;;;;;9.68;5.75;;;;;;;25.57;57.48;100118.97;5012689;28;20056;-63
2023/07/05 08:46:58;;;;;;;10.55;6.57;;;;;;;25.58;57.63;100109.75;5012602;28;20042;-63
2023/07/05 08:49:32;;;;;;;10.60;6.35;;;;;;;25.59;57.46;100111.44;5011884;28;20090;-63
2023/07/05 08:52:01;;;;;;;9.30;5.72;;;;;;;25.61;57.31;100113.97;5012326;28;20045;-63
2023/07/05 08:54:32;;;;;;;9.88;5.88;;;;;;;25.62;57.52;100113.78;5012749;28;20049;-62
2023/07/05 08:57:05;;;;;;;9.05;5.97;;;;;;;25.64;57.26;100114.41;5012472;28;20128;-62
2023/07/05 08:59:41;;;;;;;10.27;6.18;;;;;;;25.66;57.77;100116.97;5012414;28;20046;-62
2023/07/05 09:02:11;;;;;;;9.57;5.82;;;;;;;25.66;57.23;100112.34;5012605;28;20132;-63
2023/07/05 09:04:39;;;;;;;9.95;6.00;;;;;;;25.68;57.23;100110.28;5012208;28;20502;-63
2023/07/05 09:07:17;;;;;;;9.20;6.30;;;;;;;25.71;57.53;100108.22;5012223;28;20050;-63
2023/07/05 09:09:56;;;;;;;9.02;5.82;;;;;;;25.73;57.54;100111.59;5012184;28;20050;-62
2023/07/05 09:12:34;;;;;;;10.50;5.55;;;;;;;25.74;57.51;100107.84;5012192;28;20053;-62
2023/07/05 09:15:13;;;;;;;9.43;6.03;;;;;;;25.75;57.76;100107.63;5012178;28;20054;-62
2023/07/05 09:17:54;;;;;;;10.73;6.20;;;;;;;25.77;57.61;100096.50;5011890;28;20486;-62
2023/07/05 09:20:41;;;;;;;8.05;5.60;;;;;;;25.78;57.43;100088.16;5011904;28;20050;-62
2023/07/05 09:23:15;;;;;;;7.55;5.20;;;;;;;25.80;57.40;100107.06;5011536;28;20053;-62
2023/07/05 09:25:48;;;;;;;9.85;5.97;;;;;;;25.83;57.53;100101.22;5011918;28;20049;-63
2023/07/05 09:28:28;;;;;;;8.40;5.85;;;;;;;25.84;57.38;100098.28;5011677;28;20557;-63
2023/07/05 09:30:59;;;;;;;10.00;6.35;;;;;;;25.85;56.96;100088.19;5011768;28;20061;-63
2023/07/05 09:33:35;;;;;;;9.23;6.22;;;;;;;25.87;56.94;100097.06;5011608;28;20136;-62
2023/07/05 09:36:10;;;;;;;9.23;6.13;;;;;;;25.89;56.70;100098.56;5011802;28;20450;-62
2023/07/05 09:38:44;;;;;;;9.55;6.13;;;;;;;25.90;56.59;100100.25;5011472;28;20052;-61
2023/07/05 09:41:17;;;;;;;9.63;6.28;;;;;;;25.92;56.33;100089.94;5011783;28;20050;-63
2023/07/05 09:43:45;;;;;;;9.63;6.03;;;;;;;25.94;56.52;100098.78;5011509;28;20125;-63
2023/07/05 09:46:19;;;;;;;9.18;6.22;;;;;;;25.96;56.33;100090.41;5011738;28;20046;-63
2023/07/05 09:48:50;;;;;;;8.52;6.03;;;;;;;25.96;56.35;100093.13;5011624;28;20077;-62
2023/07/05 09:51:19;;;;;;;8.35;5.80;;;;;;;25.98;56.38;100091.06;5011309;28;20049;-63
2023/07/05 09:53:52;;;;;;;9.20;6.30;;;;;;;26.00;56.24;100086.25;5011548;28;20491;-62
2023/07/05 09:56:27;;;;;;;9.52;6.22;;;;;;;26.03;56.20;100088.56;5011261;28;20042;-61
2023/07/05 09:59:08;;;;;;;9.57;6.30;;;;;;;26.04;56.38;100081.22;5011693;28;20119;-62
2023/07/05 10:01:39;;;;;;;10.32;6.25;;;;;;;26.04;56.12;100076.59;5011805;28;20045;-62
2023/07/05 10:04:09;;;;;;;10.25;5.97;;;;;;;26.06;55.89;100082.75;5015456;28;20050;-62
2023/07/05 10:06:41;;;;;;;10.95;6.28;;;;;;;26.07;55.82;100076.22;5015582;28;20081;-63
2023/07/05 10:09:15;;;;;;;10.93;6.47;;;;;;;26.08;56.25;100077.91;5015202;28;20077;-63
2023/07/05 10:11:45;;;;;;;9.68;6.13;;;;;;;26.10;56.09;100084.03;5015565;28;20435;-62
2023/07/05 10:14:15;;;;;;;11.32;6.60;;;;;;;26.10;55.93;100078.56;5015359;28;20084;-63
2023/07/05 10:16:51;;;;;;;13.35;6.57;;;;;;;26.12;55.73;100079.19;5015160;28;20104;-63
2023/07/05 10:19:30;;;;;;;8.73;6.05;;;;;;;26.15;56.04;100081.56;5014616;28;20454;-62
2023/07/05 10:22:06;;;;;;;11.48;6.57;;;;;;;26.16;55.65;100082.41;5015408;28;20049;-61
2023/07/05 10:24:43;;;;;;;11.50;6.65;;;;;;;26.17;55.54;100076.72;5015220;28;20056;-62
2023/07/05 10:27:22;;;;;;;11.00;6.95;;;;;;;26.19;55.42;100074.63;5015117;28;20080;-61
2023/07/05 10:29:51;;;;;;;10.30;5.97;;;;;;;26.20;55.50;100059.94;5014794;28;20410;-63
2023/07/05 10:32:20;;;;;;;10.90;6.35;;;;;;;26.21;55.53;100064.34;5014914;28;20138;-63
2023/07/05 10:34:55;;;;;;;7.88;5.72;;;;;;;26.22;55.59;100066.03;5015207;28;20446;-62
2023/07/05 10:37:32;;;;;;;10.38;6.78;;;;;;;26.25;55.17;100062.94;5014867;28;20046;-61
2023/07/05 10:40:09;;;;;;;8.95;6.03;;;;;;;26.25;55.23;100062.94;5014882;28;20499;-63
2023/07/05 10:42:40;;;;;;;9.07;6.50;;;;;;;26.28;55.27;100052.63;5014654;28;20058;-63
2023/07/05 10:45:15;;;;;;;9.63;6.03;;;;;;;26.31;55.14;100060.44;5015028;28;20057;-63
2023/07/05 10:47:47;;;;;;;9.02;6.30;;;;;;;26.34;55.19;100065.47;5014903;28;20141;-61
2023/07/05 10:50:17;;;;;;;8.43;5.93;;;;;;;26.36;54.56;100063.41;5014874;28;20081;-63
2023/07/05 10:52:52;;;;;;;11.02;6.70;;;;;;;26.38;54.96;100050.41;5014359;28;20137;-63
2023/07/05 10:55:24;;;;;;;9.63;6.57;;;;;;;26.41;54.70;100056.31;5014656;28;20065;-63
2023/07/05 10:57:56;;;;;;;9.83;6.77;;;;;;;26.43;54.58;100048.75;5014496;28;20156;-63
2023/07/05 11:00:29;;;;;;;9.05;6.28;;;;;;;26.45;54.42;100043.97;5014285;28;20748;-63
2023/07/05 11:03:10;;;;;;;9.45;6.20;;;;;;;26.47;54.45;100046.50;5014342;28;20139;-63
2023/07/05 11:05:45;;;;;;;9.55;6.53;;;;;;;26.50;54.65;100054.28;5014188;28;20053;-63
2023/07/05 11:08:18;;;;;;;10.07;6.65;;;;;;;26.52;54.31;100038.50;5014505;28;20364;-63
2023/07/05 11:10:48;;;;;;;8.75;6.28;;;;;;;26.52;54.24;100038.50;5014387;28;20050;-62
2023/07/05 11:13:18;;;;;;;9.73;6.25;;;;;;;26.54;54.00;100039.19;5013799;28;20137;-62
2023/07/05 11:15:51;;;;;;;9.90;6.10;;;;;;;26.57;54.09;100037.94;5014049;28;20135;-62
2023/07/05 11:18:25;;;;;;;9.65;6.55;;;;;;;26.59;53.45;100028.47;5014375;28;20049;-62
2023/07/05 11:20:59;;;;;;;9.85;6.30;;;;;;;26.64;53.37;100028.72;5014180;28;20050;-63
2023/07/05 11:24:04;;;;;;;10.30;6.25;;;;;;;26.67;53.42;100028.31;5014346;28;20406;-63
2023/07/05 11:26:38;;;;;;;10.98;6.63;;;;;;;26.70;53.51;100027.03;5013035;28;20128;-62
2023/07/05 11:29:45;;;;;;;8.52;6.32;;;;;;;26.73;53.24;100021.16;5013895;28;20049;-61
2023/07/05 11:32:13;;;;;;;9.15;6.63;;;;;;;26.77;53.06;100027.94;5013919;28;20129;-63
2023/07/05 11:34:47;;;;;;;9.45;6.10;;;;;;;26.80;52.86;100020.16;5013820;28;20069;-62
2023/07/05 11:37:43;;;;;;;9.82;6.25;;;;;;;26.82;52.90;100012.56;5013599;28;20061;-64
2023/07/05 11:41:04;;;;;;;9.50;6.05;;;;;;;26.87;52.54;100013.88;5013910;28;20046;-62